Wetterdaten: Woche 02.10.17 - 08.10.17 (KW40)
Datum Zeit Temp. A. Feuchte A. Luftdruck Regen Wind Richtung Taupunkt Windchill Windben
02.10.2017 00:00 6,9 C 94 % 1020,8 hPa 0,0 l/m 0,0 km/h (0 Bft) NW 6,0 C 6,9 C 0,1 km/h (0 Bft)
02.10.2017 01:00 7,2 C 95 % 1020,3 hPa 0,0 l/m 0,0 km/h (0 Bft) NW 6,4 C 7,2 C 0,7 km/h (0 Bft)
02.10.2017 02:00 7,3 C 95 % 1020,2 hPa 0,0 l/m 0,0 km/h (0 Bft) NW 6,5 C 7,3 C 0,0 km/h (0 Bft)
02.10.2017 03:00 7,5 C 96 % 1020,0 hPa 0,0 l/m 0,0 km/h (0 Bft) NW 6,9 C 7,5 C 0,0 km/h (0 Bft)
02.10.2017 04:00 7,6 C 96 % 1019,4 hPa 0,0 l/m 0,0 km/h (0 Bft) NW 6,9 C 7,6 C 0,1 km/h (0 Bft)
02.10.2017 05:00 7,3 C 95 % 1019,5 hPa 0,0 l/m 0,0 km/h (0 Bft) NW 6,6 C 7,3 C 0,0 km/h (0 Bft)
02.10.2017 06:00 6,6 C 96 % 1019,4 hPa 0,0 l/m 0,0 km/h (0 Bft) NW 6,0 C 6,6 C 0,0 km/h (0 Bft)
02.10.2017 07:00 6,4 C 96 % 1019,6 hPa 0,0 l/m 0,0 km/h (0 Bft) NW 5,9 C 6,4 C 0,3 km/h (0 Bft)
02.10.2017 08:00 7,9 C 97 % 1019,4 hPa 0,0 l/m 0,7 km/h (0 Bft) NW 7,5 C 7,9 C 2,7 km/h (1 Bft)
02.10.2017 09:00 10,2 C 93 % 1019,1 hPa 0,3 l/m 1,9 km/h (1 Bft) O-NO 9,1 C 10,2 C 5,9 km/h (2 Bft)
02.10.2017 10:00 11,2 C 92 % 1018,9 hPa 0,5 l/m 2,1 km/h (1 Bft) NO 10,0 C 11,2 C 6,0 km/h (2 Bft)
02.10.2017 11:00 12,5 C 92 % 1019,1 hPa 0,0 l/m 2,2 km/h (1 Bft) O-NO 11,2 C 12,5 C 5,4 km/h (1 Bft)
02.10.2017 12:00 13,1 C 90 % 1018,8 hPa 0,0 l/m 4,0 km/h (1 Bft) NO 11,6 C 13,1 C 8,5 km/h (2 Bft)
02.10.2017 13:00 14,2 C 89 % 1018,3 hPa 0,0 l/m 3,7 km/h (1 Bft) N-NO 12,4 C 14,2 C 9,1 km/h (2 Bft)
02.10.2017 14:00 15,7 C 85 % 1017,8 hPa 0,0 l/m 6,2 km/h (2 Bft) NO 13,2 C 15,6 C 16,2 km/h (3 Bft)
02.10.2017 15:00 15,8 C 84 % 1017,6 hPa 0,0 l/m 8,2 km/h (2 Bft) O-NO 13,1 C 14,9 C 19,7 km/h (3 Bft)
02.10.2017 16:00 15,7 C 85 % 1017,4 hPa 0,0 l/m 6,6 km/h (2 Bft) O-NO 13,2 C 15,2 C 17,0 km/h (3 Bft)
02.10.2017 17:00 15,5 C 86 % 1017,3 hPa 0,0 l/m 5,0 km/h (1 Bft) O 13,2 C 15,5 C 15,0 km/h (3 Bft)
02.10.2017 18:00 15,2 C 88 % 1017,2 hPa 0,0 l/m 4,9 km/h (1 Bft) O-NO 13,2 C 15,2 C 14,9 km/h (3 Bft)
02.10.2017 19:00 14,8 C 90 % 1017,4 hPa 0,0 l/m 5,9 km/h (2 Bft) O-NO 13,2 C 14,6 C 14,6 km/h (3 Bft)
02.10.2017 20:00 14,5 C 92 % 1017,5 hPa 0,0 l/m 4,4 km/h (1 Bft) O-NO 13,3 C 14,5 C 11,8 km/h (2 Bft)
02.10.2017 21:00 14,4 C 94 % 1017,2 hPa 0,0 l/m 4,9 km/h (1 Bft) O 13,4 C 14,3 C 14,2 km/h (3 Bft)
02.10.2017 22:00 14,4 C 94 % 1017,0 hPa 0,8 l/m 3,2 km/h (1 Bft) O-NO 13,4 C 14,4 C 9,3 km/h (2 Bft)
02.10.2017 23:00 14,3 C 95 % 1016,6 hPa 1,0 l/m 2,5 km/h (1 Bft) O-NO 13,5 C 14,3 C 6,6 km/h (2 Bft)
03.10.2017 00:00 14,2 C 95 % 1016,5 hPa 0,3 l/m 3,1 km/h (1 Bft) O 13,4 C 14,2 C 7,9 km/h (2 Bft)
03.10.2017 01:00 14,1 C 95 % 1015,7 hPa 0,0 l/m 3,4 km/h (1 Bft) O-NO 13,3 C 14,1 C 9,8 km/h (2 Bft)
03.10.2017 02:00 14,2 C 95 % 1015,0 hPa 0,8 l/m 4,2 km/h (1 Bft) O-NO 13,4 C 14,2 C 12,4 km/h (2 Bft)
03.10.2017 03:00 14,2 C 96 % 1013,5 hPa 0,8 l/m 3,5 km/h (1 Bft) O-NO 13,5 C 14,2 C 9,9 km/h (2 Bft)
03.10.2017 04:00 14,6 C 96 % 1012,1 hPa 0,3 l/m 6,4 km/h (2 Bft) O 13,9 C 14,2 C 16,8 km/h (3 Bft)
03.10.2017 05:00 15,0 C 94 % 1011,1 hPa 5,1 l/m 9,4 km/h (2 Bft) NO 14,1 C 13,5 C 23,6 km/h (4 Bft)
03.10.2017 06:00 13,1 C 94 % 1012,0 hPa 3,8 l/m 4,2 km/h (1 Bft) O-NO 12,1 C 12,8 C 13,3 km/h (3 Bft)
03.10.2017 07:00 11,3 C 95 % 1013,5 hPa 4,3 l/m 0,8 km/h (0 Bft) O 10,6 C 11,3 C 4,0 km/h (1 Bft)
03.10.2017 08:00 10,8 C 96 % 1014,8 hPa 3,0 l/m 0,8 km/h (0 Bft) O 10,2 C 10,8 C 3,1 km/h (1 Bft)
03.10.2017 09:00 10,6 C 96 % 1015,9 hPa 2,0 l/m 1,0 km/h (0 Bft) NO 10,0 C 10,6 C 4,0 km/h (1 Bft)
03.10.2017 10:00 10,8 C 93 % 1017,1 hPa 0,0 l/m 3,0 km/h (1 Bft) O-NO 9,7 C 10,8 C 8,9 km/h (2 Bft)
03.10.2017 11:00 11,1 C 91 % 1018,7 hPa 0,0 l/m 1,5 km/h (1 Bft) O-SO 9,7 C 11,1 C 5,2 km/h (1 Bft)
03.10.2017 12:00 11,6 C 88 % 1019,4 hPa 0,0 l/m 2,9 km/h (1 Bft) O-NO 9,6 C 11,6 C 7,0 km/h (2 Bft)
03.10.2017 13:00 12,8 C 79 % 1020,2 hPa 0,0 l/m 3,5 km/h (1 Bft) NO 9,2 C 12,8 C 8,7 km/h (2 Bft)
03.10.2017 14:00 12,7 C 76 % 1020,8 hPa 0,0 l/m 3,0 km/h (1 Bft) O-NO 8,5 C 12,7 C 8,8 km/h (2 Bft)
03.10.2017 15:00 13,2 C 71 % 1021,3 hPa 0,0 l/m 4,4 km/h (1 Bft) O-NO 8,1 C 13,2 C 11,4 km/h (2 Bft)
03.10.2017 16:00 14,0 C 65 % 1021,4 hPa 0,0 l/m 3,4 km/h (1 Bft) O-NO 7,5 C 14,0 C 9,9 km/h (2 Bft)
03.10.2017 17:00 13,4 C 66 % 1021,8 hPa 0,0 l/m 3,4 km/h (1 Bft) O-NO 7,1 C 13,4 C 11,4 km/h (2 Bft)
03.10.2017 18:00 11,9 C 71 % 1022,6 hPa 0,0 l/m 0,9 km/h (0 Bft) O-NO 6,8 C 11,9 C 4,5 km/h (1 Bft)
03.10.2017 19:00 8,9 C 84 % 1023,4 hPa 0,0 l/m 0,0 km/h (0 Bft) O-NO 6,4 C 8,9 C 0,3 km/h (0 Bft)
03.10.2017 20:00 6,4 C 92 % 1024,0 hPa 0,0 l/m 0,0 km/h (0 Bft) O-NO 5,2 C 6,4 C 0,0 km/h (0 Bft)
03.10.2017 21:00 5,4 C 94 % 1024,7 hPa 0,0 l/m 0,0 km/h (0 Bft) O-NO 4,5 C 5,4 C 0,1 km/h (0 Bft)
03.10.2017 22:00 4,6 C 95 % 1025,3 hPa 0,0 l/m 0,0 km/h (0 Bft) O-NO 3,9 C 4,6 C 0,0 km/h (0 Bft)
03.10.2017 23:00 3,9 C 95 % 1025,9 hPa 0,0 l/m 0,0 km/h (0 Bft) O-NO 3,3 C 3,9 C 0,0 km/h (0 Bft)
04.10.2017 00:00 3,5 C 96 % 1026,0 hPa 0,0 l/m 0,0 km/h (0 Bft) O-NO 2,9 C 3,5 C 0,1 km/h (0 Bft)
04.10.2017 01:00 3,2 C 97 % 1025,8 hPa 0,0 l/m 0,0 km/h (0 Bft) O-NO 2,7 C 3,2 C 0,0 km/h (0 Bft)
04.10.2017 02:00 2,9 C 96 % 1025,8 hPa 0,0 l/m 0,0 km/h (0 Bft) O-NO 2,3 C 2,9 C 0,0 km/h (0 Bft)
04.10.2017 03:00 2,7 C 97 % 1025,9 hPa 0,0 l/m 0,0 km/h (0 Bft) O-NO 2,3 C 2,7 C 0,0 km/h (0 Bft)
04.10.2017 04:00 2,6 C 97 % 1025,9 hPa 0,0 l/m 0,0 km/h (0 Bft) O-NO 2,1 C 2,6 C 0,0 km/h (0 Bft)
04.10.2017 05:00 2,4 C 97 % 1025,7 hPa 0,0 l/m 0,0 km/h (0 Bft) O-NO 2,0 C 2,4 C 0,0 km/h (0 Bft)
04.10.2017 06:00 2,3 C 97 % 1025,7 hPa 0,0 l/m 0,0 km/h (0 Bft) O-NO 1,9 C 2,3 C 0,0 km/h (0 Bft)
04.10.2017 07:00 2,0 C 97 % 1025,9 hPa 0,0 l/m 0,0 km/h (0 Bft) O-NO 1,5 C 2,0 C 0,0 km/h (0 Bft)
04.10.2017 08:00 2,7 C 98 % 1025,9 hPa 0,0 l/m 0,0 km/h (0 Bft) O-NO 2,4 C 2,7 C 0,0 km/h (0 Bft)
04.10.2017 09:00 4,3 C 98 % 1026,2 hPa 0,0 l/m 0,0 km/h (0 Bft) O-NO 4,0 C 4,3 C 0,0 km/h (0 Bft)
04.10.2017 10:00 6,7 C 98 % 1026,3 hPa 0,0 l/m 0,5 km/h (0 Bft) N-NO 6,4 C 6,7 C 2,0 km/h (1 Bft)
04.10.2017 11:00 9,2 C 92 % 1026,0 hPa 0,3 l/m 2,8 km/h (1 Bft) NO 7,9 C 9,2 C 6,2 km/h (2 Bft)
04.10.2017 12:00 10,4 C 84 % 1025,8 hPa 0,0 l/m 3,1 km/h (1 Bft) O 7,8 C 10,4 C 7,3 km/h (2 Bft)
04.10.2017 13:00 11,7 C 76 % 1025,3 hPa 0,0 l/m 3,9 km/h (1 Bft) O-NO 7,7 C 11,7 C 10,7 km/h (2 Bft)
04.10.2017 14:00 12,8 C 70 % 1024,9 hPa 0,0 l/m 4,9 km/h (1 Bft) O-NO 7,5 C 12,8 C 12,8 km/h (3 Bft)
04.10.2017 15:00 13,8 C 65 % 1024,4 hPa 0,0 l/m 5,9 km/h (2 Bft) O-NO 7,3 C 13,6 C 13,4 km/h (3 Bft)
04.10.2017 16:00 13,7 C 61 % 1023,9 hPa 0,0 l/m 5,1 km/h (1 Bft) NO 6,4 C 13,7 C 13,6 km/h (3 Bft)
04.10.2017 17:00 12,5 C 66 % 1023,7 hPa 0,0 l/m 3,1 km/h (1 Bft) O-NO 6,3 C 12,5 C 8,7 km/h (2 Bft)
04.10.2017 18:00 11,1 C 75 % 1023,7 hPa 0,0 l/m 1,3 km/h (1 Bft) O-NO 6,8 C 11,1 C 5,3 km/h (1 Bft)
04.10.2017 19:00 9,9 C 80 % 1023,3 hPa 0,0 l/m 1,8 km/h (1 Bft) NO 6,7 C 9,9 C 7,8 km/h (2 Bft)
04.10.2017 20:00 9,8 C 80 % 1023,3 hPa 0,0 l/m 1,3 km/h (1 Bft) N-NO 6,5 C 9,8 C 5,3 km/h (1 Bft)
04.10.2017 21:00 9,7 C 80 % 1023,6 hPa 0,0 l/m 1,1 km/h (1 Bft) O 6,5 C 9,7 C 4,9 km/h (1 Bft)
04.10.2017 22:00 9,9 C 79 % 1023,1 hPa 0,0 l/m 3,1 km/h (1 Bft) O 6,5 C 9,9 C 10,1 km/h (2 Bft)
04.10.2017 23:00 10,0 C 79 % 1023,0 hPa 0,0 l/m 1,2 km/h (1 Bft) O-SO 6,4 C 10,0 C 4,6 km/h (1 Bft)
05.10.2017 00:00 9,5 C 79 % 1022,9 hPa 0,0 l/m 1,3 km/h (1 Bft) NO 6,1 C 9,5 C 4,5 km/h (1 Bft)
05.10.2017 01:00 7,9 C 85 % 1022,4 hPa 0,0 l/m 0,5 km/h (0 Bft) NO 5,5 C 7,9 C 3,2 km/h (1 Bft)
05.10.2017 02:00 6,8 C 89 % 1022,1 hPa 0,0 l/m 0,6 km/h (0 Bft) O-NO 5,1 C 6,8 C 3,2 km/h (1 Bft)
05.10.2017 03:00 6,9 C 90 % 1021,1 hPa 0,0 l/m 1,7 km/h (1 Bft) O-NO 5,4 C 6,9 C 6,4 km/h (2 Bft)
05.10.2017 04:00 6,2 C 92 % 1020,2 hPa 0,0 l/m 0,1 km/h (0 Bft) O-NO 4,9 C 6,2 C 0,5 km/h (0 Bft)
05.10.2017 05:00 5,5 C 93 % 1019,3 hPa 0,0 l/m 0,2 km/h (0 Bft) O 4,5 C 5,5 C 1,6 km/h (1 Bft)
05.10.2017 06:00 5,1 C 90 % 1018,5 hPa 0,0 l/m 0,3 km/h (0 Bft) O-NO 3,5 C 5,1 C 2,3 km/h (1 Bft)
05.10.2017 07:00 7,1 C 89 % 1017,8 hPa 0,0 l/m 1,4 km/h (1 Bft) O-NO 5,4 C 7,1 C 6,7 km/h (2 Bft)
05.10.2017 08:00 10,5 C 76 % 1017,2 hPa 0,0 l/m 5,1 km/h (1 Bft) O-NO 6,4 C 10,4 C 14,0 km/h (3 Bft)
05.10.2017 09:00 12,6 C 63 % 1016,7 hPa 0,0 l/m 8,8 km/h (2 Bft) O-NO 5,8 C 11,2 C 20,2 km/h (4 Bft)
05.10.2017 10:00 14,3 C 55 % 1016,4 hPa 0,0 l/m 9,6 km/h (2 Bft) O-NO 5,3 C 12,6 C 21,4 km/h (4 Bft)
05.10.2017 11:00 16,1 C 47 % 1015,9 hPa 0,0 l/m 10,3 km/h (2 Bft) O-NO 4,8 C 14,3 C 20,0 km/h (4 Bft)
05.10.2017 12:00 17,0 C 42 % 1015,7 hPa 0,0 l/m 10,4 km/h (2 Bft) NO 3,9 C 15,2 C 22,4 km/h (4 Bft)
05.10.2017 13:00 17,6 C 41 % 1015,2 hPa 0,0 l/m 9,9 km/h (2 Bft) O-NO 4,1 C 16,1 C 23,3 km/h (4 Bft)
05.10.2017 14:00 17,2 C 45 % 1014,2 hPa 0,0 l/m 8,7 km/h (2 Bft) NO 5,2 C 16,1 C 22,5 km/h (4 Bft)
05.10.2017 15:00 16,3 C 47 % 1013,5 hPa 0,0 l/m 5,8 km/h (2 Bft) O-NO 4,9 C 16,0 C 16,6 km/h (3 Bft)
05.10.2017 16:00 13,5 C 70 % 1013,8 hPa 0,5 l/m 4,3 km/h (1 Bft) O-NO 8,1 C 13,5 C 12,3 km/h (2 Bft)
05.10.2017 17:00 12,5 C 78 % 1013,6 hPa 0,0 l/m 2,7 km/h (1 Bft) O 8,7 C 12,5 C 8,2 km/h (2 Bft)
05.10.2017 18:00 12,5 C 83 % 1013,9 hPa 1,3 l/m 4,0 km/h (1 Bft) O-NO 9,7 C 12,5 C 12,5 km/h (2 Bft)
05.10.2017 19:00 11,4 C 92 % 1014,4 hPa 2,5 l/m 5,3 km/h (1 Bft) O-NO 10,2 C 11,3 C 16,1 km/h (3 Bft)
05.10.2017 20:00 11,2 C 94 % 1014,8 hPa 1,8 l/m 3,6 km/h (1 Bft) O 10,3 C 11,2 C 10,1 km/h (2 Bft)
05.10.2017 21:00 10,1 C 92 % 1015,9 hPa 1,0 l/m 2,3 km/h (1 Bft) O-NO 8,8 C 10,1 C 7,8 km/h (2 Bft)
05.10.2017 22:00 8,3 C 93 % 1016,7 hPa 0,3 l/m 0,2 km/h (0 Bft) NO 7,2 C 8,3 C 1,3 km/h (1 Bft)
05.10.2017 23:00 7,7 C 95 % 1017,0 hPa 0,0 l/m 0,1 km/h (0 Bft) N 6,9 C 7,7 C 0,3 km/h (0 Bft)
06.10.2017 00:00 7,3 C 95 % 1017,2 hPa 0,0 l/m 0,2 km/h (0 Bft) O 6,5 C 7,3 C 0,8 km/h (0 Bft)
06.10.2017 01:00 6,3 C 95 % 1017,1 hPa 0,0 l/m 0,0 km/h (0 Bft) O 5,6 C 6,3 C 0,4 km/h (0 Bft)
06.10.2017 02:00 5,5 C 96 % 1017,4 hPa 0,0 l/m 0,1 km/h (0 Bft) O 4,9 C 5,5 C 0,9 km/h (0 Bft)
06.10.2017 03:00 5,6 C 97 % 1017,6 hPa 0,3 l/m 0,0 km/h (0 Bft) O 5,1 C 5,6 C 0,0 km/h (0 Bft)
06.10.2017 04:00 4,8 C 95 % 1017,6 hPa 0,0 l/m 0,0 km/h (0 Bft) O 4,1 C 4,8 C 0,0 km/h (0 Bft)
06.10.2017 05:00 3,8 C 97 % 1017,8 hPa 0,0 l/m 0,0 km/h (0 Bft) O 3,3 C 3,8 C 0,0 km/h (0 Bft)
06.10.2017 06:00 3,9 C 97 % 1018,0 hPa 0,0 l/m 0,0 km/h (0 Bft) O 3,4 C 3,9 C 0,0 km/h (0 Bft)
06.10.2017 07:00 4,9 C 98 % 1018,3 hPa 0,0 l/m 0,5 km/h (0 Bft) O-NO 4,5 C 4,9 C 2,9 km/h (1 Bft)
06.10.2017 08:00 5,8 C 97 % 1018,4 hPa 0,8 l/m 1,7 km/h (1 Bft) O-NO 5,4 C 5,8 C 5,2 km/h (1 Bft)
06.10.2017 09:00 6,1 C 96 % 1019,0 hPa 0,8 l/m 2,2 km/h (1 Bft) O 5,6 C 6,1 C 6,5 km/h (2 Bft)
06.10.2017 10:00 6,4 C 95 % 1019,2 hPa 0,3 l/m 2,8 km/h (1 Bft) O 5,7 C 6,4 C 7,8 km/h (2 Bft)
06.10.2017 11:00 7,1 C 95 % 1019,7 hPa 0,0 l/m 2,8 km/h (1 Bft) O-NO 6,3 C 7,1 C 7,1 km/h (2 Bft)
06.10.2017 12:00 7,8 C 93 % 1019,9 hPa 0,0 l/m 3,4 km/h (1 Bft) O-NO 6,7 C 7,8 C 9,4 km/h (2 Bft)
06.10.2017 13:00 9,6 C 86 % 1019,9 hPa 0,3 l/m 5,2 km/h (1 Bft) NO 7,4 C 9,5 C 16,2 km/h (3 Bft)
06.10.2017 14:00 7,9 C 90 % 1020,3 hPa 1,0 l/m 4,5 km/h (1 Bft) O 6,4 C 7,9 C 11,6 km/h (2 Bft)
06.10.2017 15:00 8,0 C 92 % 1020,5 hPa 0,3 l/m 3,1 km/h (1 Bft) O-NO 6,8 C 8,0 C 9,4 km/h (2 Bft)
06.10.2017 16:00 8,7 C 87 % 1020,9 hPa 0,0 l/m 3,7 km/h (1 Bft) O 6,7 C 8,7 C 10,7 km/h (2 Bft)
06.10.2017 17:00 8,2 C 88 % 1021,3 hPa 0,0 l/m 3,4 km/h (1 Bft) O-NO 6,3 C 8,2 C 11,8 km/h (2 Bft)
06.10.2017 18:00 7,3 C 91 % 1021,9 hPa 0,0 l/m 1,7 km/h (1 Bft) O-NO 5,9 C 7,3 C 6,4 km/h (2 Bft)
06.10.2017 19:00 6,9 C 94 % 1022,8 hPa 0,5 l/m 1,2 km/h (1 Bft) O 6,0 C 6,9 C 5,1 km/h (1 Bft)
06.10.2017 20:00 6,8 C 95 % 1023,4 hPa 0,3 l/m 0,3 km/h (0 Bft) O-SO 6,0 C 6,8 C 2,4 km/h (1 Bft)
06.10.2017 21:00 6,9 C 95 % 1024,2 hPa 0,3 l/m 0,8 km/h (0 Bft) O 6,1 C 6,9 C 3,6 km/h (1 Bft)
06.10.2017 22:00 6,8 C 95 % 1024,8 hPa 0,0 l/m 0,6 km/h (0 Bft) NO 6,1 C 6,8 C 3,5 km/h (1 Bft)
06.10.2017 23:00 6,4 C 95 % 1025,3 hPa 0,0 l/m 0,4 km/h (0 Bft) O-NO 5,7 C 6,4 C 2,5 km/h (1 Bft)
07.10.2017 00:00 5,8 C 95 % 1025,4 hPa 0,0 l/m 0,0 km/h (0 Bft) O-NO 5,1 C 5,8 C 0,7 km/h (0 Bft)
07.10.2017 01:00 6,0 C 97 % 1025,5 hPa 0,0 l/m 0,7 km/h (0 Bft) O-NO 5,5 C 6,0 C 2,5 km/h (1 Bft)
07.10.2017 02:00 6,6 C 96 % 1025,7 hPa 0,3 l/m 1,5 km/h (1 Bft) O-NO 6,1 C 6,6 C 4,9 km/h (1 Bft)
07.10.2017 03:00 6,5 C 96 % 1025,5 hPa 0,0 l/m 2,6 km/h (1 Bft) O 5,9 C 6,5 C 7,0 km/h (2 Bft)
07.10.2017 04:00 6,2 C 96 % 1025,4 hPa 0,0 l/m 1,5 km/h (1 Bft) O-NO 5,6 C 6,2 C 4,9 km/h (1 Bft)
07.10.2017 05:00 6,3 C 96 % 1025,3 hPa 0,5 l/m 1,3 km/h (1 Bft) O-NO 5,7 C 6,3 C 3,9 km/h (1 Bft)
07.10.2017 06:00 6,3 C 96 % 1025,2 hPa 0,0 l/m 1,1 km/h (0 Bft) NO 5,7 C 6,3 C 4,4 km/h (1 Bft)
07.10.2017 07:00 6,2 C 96 % 1025,4 hPa 0,0 l/m 0,9 km/h (0 Bft) O-NO 5,6 C 6,2 C 3,9 km/h (1 Bft)
07.10.2017 08:00 6,3 C 96 % 1025,4 hPa 0,0 l/m 1,5 km/h (1 Bft) O-NO 5,7 C 6,3 C 4,9 km/h (1 Bft)
07.10.2017 09:00 7,2 C 93 % 1025,2 hPa 0,0 l/m 3,3 km/h (1 Bft) NO 6,2 C 7,2 C 9,7 km/h (2 Bft)
07.10.2017 10:00 9,0 C 87 % 1025,1 hPa 0,0 l/m 4,6 km/h (1 Bft) O-NO 6,9 C 9,0 C 11,1 km/h (2 Bft)
07.10.2017 11:00 10,3 C 80 % 1024,5 hPa 0,0 l/m 4,9 km/h (1 Bft) O 6,9 C 10,2 C 11,4 km/h (2 Bft)
07.10.2017 12:00 11,4 C 72 % 1024,1 hPa 0,0 l/m 6,6 km/h (2 Bft) O-NO 6,6 C 10,9 C 14,3 km/h (3 Bft)
07.10.2017 13:00 11,1 C 70 % 1023,3 hPa 0,0 l/m 5,5 km/h (2 Bft) O-NO 5,9 C 10,9 C 13,7 km/h (3 Bft)
07.10.2017 14:00 11,4 C 71 % 1022,3 hPa 0,0 l/m 4,8 km/h (1 Bft) O-NO 6,3 C 11,4 C 12,6 km/h (3 Bft)
07.10.2017 15:00 11,4 C 69 % 1021,3 hPa 0,0 l/m 5,5 km/h (2 Bft) O-NO 5,9 C 11,1 C 14,1 km/h (3 Bft)
07.10.2017 16:00 10,8 C 70 % 1020,6 hPa 0,0 l/m 5,7 km/h (2 Bft) O-NO 5,6 C 10,6 C 14,5 km/h (3 Bft)
07.10.2017 17:00 10,4 C 74 % 1020,0 hPa 0,0 l/m 3,4 km/h (1 Bft) O-NO 5,9 C 10,4 C 9,3 km/h (2 Bft)
07.10.2017 18:00 9,9 C 74 % 1019,2 hPa 0,0 l/m 3,5 km/h (1 Bft) N-NO 5,5 C 9,9 C 9,9 km/h (2 Bft)
07.10.2017 19:00 8,6 C 79 % 1018,8 hPa 0,0 l/m 1,2 km/h (1 Bft) NO 5,1 C 8,6 C 5,6 km/h (2 Bft)
07.10.2017 20:00 8,4 C 79 % 1018,5 hPa 0,0 l/m 1,7 km/h (1 Bft) O 5,0 C 8,4 C 7,5 km/h (2 Bft)
07.10.2017 21:00 8,6 C 81 % 1018,2 hPa 0,0 l/m 3,0 km/h (1 Bft) O-NO 5,5 C 8,6 C 10,7 km/h (2 Bft)
07.10.2017 22:00 8,2 C 84 % 1017,6 hPa 0,0 l/m 2,8 km/h (1 Bft) O-NO 5,7 C 8,2 C 9,1 km/h (2 Bft)
07.10.2017 23:00 8,7 C 81 % 1017,3 hPa 0,0 l/m 3,2 km/h (1 Bft) O-NO 5,6 C 8,7 C 8,9 km/h (2 Bft)
08.10.2017 00:00 8,5 C 83 % 1016,8 hPa 0,8 l/m 6,4 km/h (2 Bft) O-NO 5,7 C 7,9 C 14,1 km/h (3 Bft)
08.10.2017 01:00 7,0 C 93 % 1016,8 hPa 1,8 l/m 6,6 km/h (2 Bft) O-NO 5,9 C 6,6 C 17,8 km/h (3 Bft)
08.10.2017 02:00 6,8 C 94 % 1016,7 hPa 0,3 l/m 6,1 km/h (2 Bft) NO 5,9 C 6,6 C 16,8 km/h (3 Bft)
08.10.2017 03:00 6,7 C 95 % 1016,5 hPa 0,0 l/m 3,5 km/h (1 Bft) O-NO 5,9 C 6,7 C 10,5 km/h (2 Bft)
08.10.2017 04:00 6,9 C 95 % 1016,5 hPa 1,5 l/m 5,9 km/h (2 Bft) O 6,2 C 6,6 C 15,3 km/h (3 Bft)
08.10.2017 05:00 7,0 C 95 % 1016,4 hPa 0,8 l/m 4,7 km/h (1 Bft) O-NO 6,3 C 7,0 C 12,6 km/h (3 Bft)
08.10.2017 06:00 7,2 C 96 % 1016,4 hPa 0,5 l/m 3,3 km/h (1 Bft) O-NO 6,6 C 7,2 C 11,3 km/h (2 Bft)
08.10.2017 07:00 7,2 C 96 % 1016,5 hPa 0,5 l/m 3,7 km/h (1 Bft) NO 6,6 C 7,2 C 11,5 km/h (2 Bft)
08.10.2017 08:00 7,4 C 96 % 1017,1 hPa 0,3 l/m 3,2 km/h (1 Bft) O 6,8 C 7,4 C 8,8 km/h (2 Bft)
08.10.2017 09:00 7,9 C 96 % 1017,7 hPa 0,5 l/m 3,2 km/h (1 Bft) O 7,3 C 7,9 C 8,4 km/h (2 Bft)
08.10.2017 10:00 8,5 C 96 % 1018,2 hPa 0,0 l/m 3,3 km/h (1 Bft) O-NO 7,9 C 8,5 C 7,3 km/h (2 Bft)
08.10.2017 11:00 8,9 C 96 % 1018,7 hPa 0,3 l/m 2,7 km/h (1 Bft) O-NO 8,3 C 8,9 C 7,5 km/h (2 Bft)
08.10.2017 12:00 8,9 C 95 % 1018,9 hPa 0,3 l/m 4,1 km/h (1 Bft) O-NO 8,2 C 8,9 C 9,2 km/h (2 Bft)
08.10.2017 13:00 9,1 C 95 % 1019,0 hPa 0,0 l/m 3,2 km/h (1 Bft) O-NO 8,3 C 9,1 C 9,0 km/h (2 Bft)
08.10.2017 14:00 9,6 C 94 % 1018,8 hPa 0,0 l/m 2,8 km/h (1 Bft) O-NO 8,6 C 9,6 C 7,6 km/h (2 Bft)
08.10.2017 15:00 9,7 C 93 % 1018,8 hPa 0,0 l/m 2,2 km/h (1 Bft) O-NO 8,7 C 9,7 C 6,4 km/h (2 Bft)
08.10.2017 16:00 10,0 C 93 % 1018,8 hPa 0,0 l/m 2,8 km/h (1 Bft) O-NO 8,8 C 10,0 C 7,3 km/h (2 Bft)
08.10.2017 17:00 9,7 C 94 % 1018,9 hPa 0,0 l/m 1,6 km/h (1 Bft) O-NO 8,8 C 9,7 C 5,1 km/h (1 Bft)
08.10.2017 18:00 9,5 C 95 % 1019,3 hPa 0,0 l/m 1,3 km/h (1 Bft) O-NO 8,7 C 9,5 C 4,5 km/h (1 Bft)
08.10.2017 19:00 9,3 C 95 % 1019,8 hPa 0,0 l/m 1,8 km/h (1 Bft) O-NO 8,6 C 9,3 C 5,9 km/h (2 Bft)
08.10.2017 20:00 9,3 C 95 % 1020,2 hPa 0,0 l/m 1,4 km/h (1 Bft) O 8,5 C 9,3 C 4,4 km/h (1 Bft)
08.10.2017 21:00 9,3 C 95 % 1020,2 hPa 0,0 l/m 2,2 km/h (1 Bft) O-NO 8,5 C 9,3 C 6,0 km/h (2 Bft)
08.10.2017 22:00 8,9 C 95 % 1020,3 hPa 0,0 l/m 1,6 km/h (1 Bft) NO 8,2 C 8,9 C 4,8 km/h (1 Bft)
08.10.2017 23:00 8,7 C 96 % 1020,3 hPa 0,0 l/m 0,4 km/h (0 Bft) O-NO 8,1 C 8,7 C 2,1 km/h (1 Bft)
Min-Datum _ 04.10.17 05.10.17 03.10.17 - 08.10.17 - 04.10.17 04.10.17 08.10.17
_ Min-Zeit 07:15 13:05 05:55 - 23:00 - 07:15 07:15 23:00
Minimum _ 1,9 C 38 % 1010,2 hPa - 0,0 km/h (0 Bft) - 1,5 C 1,9 C 0,0 km/h (0 Bft)
Max-Datum _ 05.10.17 06.10.17 04.10.17 03.10.17 05.10.17 - 03.10.17 05.10.17 05.10.17
_ Max-Zeit 14:00 08:10 10:15 05:35 12:01 - 05:35 12:55 14:00
Maximum _ 17,9 C 98 % 1026,5 hPa 5,1 l/m 16,1 km/h
NO (3 Bft)
- 14,3 C 17,4 C 29,0 km/h
NO (5 Bft)
Durchschnitt _ 9,3 C 88 % 1020,0 hPa #43,2 l/m 2,7 km/h (1 Bft) O-NO 7,1 C 9,2 C 7,5 km/h (2 Bft)